createdAt,value
2018-07-28T00:00:32.135Z,37.00
2018-07-28T00:03:03.952Z,37.60
2018-07-28T00:05:35.534Z,35.40
2018-07-28T00:08:07.644Z,37.80
2018-07-28T00:10:39.941Z,37.20
2018-07-28T00:13:11.718Z,37.40
2018-07-28T00:15:43.699Z,37.20
2018-07-28T00:18:15.282Z,37.20
2018-07-28T00:20:47.214Z,35.40
2018-07-28T00:23:19.167Z,33.80
2018-07-28T00:25:55.487Z,38.00
2018-07-28T00:28:27.304Z,39.60
2018-07-28T00:30:59.240Z,36.80
2018-07-28T00:33:31.180Z,38.20
2018-07-28T00:36:02.931Z,36.40
2018-07-28T00:38:36.105Z,40.00
2018-07-28T00:41:07.962Z,39.80
2018-07-28T00:43:39.942Z,38.80
2018-07-28T00:46:11.998Z,36.80
2018-07-28T00:48:43.793Z,39.20
2018-07-28T00:51:15.793Z,40.20
2018-07-28T00:53:47.758Z,38.60
2018-07-28T00:56:19.712Z,38.80
2018-07-28T00:58:51.674Z,41.60
2018-07-28T01:01:23.455Z,38.80
2018-07-28T01:03:55.616Z,40.20
2018-07-28T01:06:27.513Z,38.00
2018-07-28T01:08:59.259Z,37.60
2018-07-28T01:11:30.969Z,38.20
2018-07-28T01:14:02.885Z,39.80
2018-07-28T01:16:34.529Z,38.80
2018-07-28T01:19:06.234Z,43.20
2018-07-28T01:21:38.058Z,39.20
2018-07-28T01:24:09.889Z,41.60
2018-07-28T01:26:41.670Z,43.40
2018-07-28T01:29:19.351Z,38.00
2018-07-28T01:31:51.209Z,38.60
2018-07-28T01:34:27.520Z,41.80
2018-07-28T01:36:59.432Z,42.40
2018-07-28T01:39:31.433Z,40.60
2018-07-28T01:42:03.320Z,41.40
2018-07-28T01:44:35.141Z,42.00
2018-07-28T01:47:06.836Z,41.80
2018-07-28T01:49:38.648Z,39.80
2018-07-28T01:52:10.546Z,40.40
2018-07-28T01:54:42.322Z,42.00
2018-07-28T01:57:14.942Z,41.40
2018-07-28T01:59:46.795Z,43.60
2018-07-28T02:02:19.734Z,32.80
2018-07-28T02:04:51.873Z,38.60
2018-07-28T02:07:23.704Z,40.80
2018-07-28T02:09:55.127Z,43.60
2018-07-28T02:12:26.986Z,42.80
2018-07-28T02:14:58.866Z,44.00
2018-07-28T02:17:30.456Z,39.80
2018-07-28T02:20:02.527Z,45.80
2018-07-28T02:22:34.505Z,44.00
2018-07-28T02:25:07.847Z,43.20
2018-07-28T02:27:39.773Z,43.60
2018-07-28T02:30:12.166Z,44.20
2018-07-28T02:32:44.057Z,47.60
2018-07-28T02:35:15.795Z,47.80
2018-07-28T02:37:49.129Z,45.80
2018-07-28T02:40:20.789Z,44.20
2018-07-28T02:42:52.839Z,42.00
2018-07-28T02:45:24.745Z,41.40
2018-07-28T02:47:56.767Z,46.40
2018-07-28T02:50:28.608Z,46.00
2018-07-28T02:53:00.419Z,44.00
2018-07-28T02:55:32.060Z,44.40
2018-07-28T02:58:03.930Z,43.00
2018-07-28T03:00:35.841Z,46.80
2018-07-28T03:03:07.857Z,42.80
2018-07-28T03:05:39.776Z,46.40
2018-07-28T03:08:11.485Z,45.60
2018-07-28T03:10:43.361Z,43.00
2018-07-28T03:13:15.374Z,45.40
2018-07-28T03:15:47.446Z,46.00
2018-07-28T03:18:19.432Z,47.20
2018-07-28T03:20:51.338Z,45.80
2018-07-28T03:23:23.177Z,46.20
2018-07-28T03:25:55.048Z,44.00
2018-07-28T03:28:27.071Z,45.40
2018-07-28T03:30:59.206Z,44.60
2018-07-28T03:33:31.182Z,45.20
2018-07-28T03:36:03.015Z,48.40
2018-07-28T03:38:35.185Z,46.60
2018-07-28T03:41:07.351Z,48.00
2018-07-28T03:43:39.118Z,47.00
2018-07-28T03:46:10.961Z,47.40
2018-07-28T03:48:42.794Z,41.80
2018-07-28T03:51:15.244Z,45.00
2018-07-28T03:53:47.439Z,44.20
2018-07-28T03:56:19.454Z,43.60
2018-07-28T03:58:51.696Z,46.60
2018-07-28T04:01:23.354Z,46.00
2018-07-28T04:03:55.547Z,46.20
2018-07-28T04:06:27.255Z,46.00
2018-07-28T04:08:59.418Z,46.20
2018-07-28T04:11:31.198Z,46.60
2018-07-28T04:14:03.140Z,47.00
2018-07-28T04:16:35.164Z,31.00
2018-07-28T04:19:07.562Z,25.60
2018-07-28T04:21:39.401Z,27.00
2018-07-28T04:24:11.386Z,32.80
2018-07-28T04:26:43.200Z,36.40
2018-07-28T04:29:15.305Z,39.00
2018-07-28T04:31:47.021Z,38.60
2018-07-28T04:34:19.129Z,40.40
2018-07-28T04:36:50.879Z,38.40
2018-07-28T04:39:23.893Z,37.60
2018-07-28T04:41:55.655Z,42.40
2018-07-28T04:44:27.588Z,42.40
2018-07-28T04:46:59.309Z,43.60
2018-07-28T04:49:31.520Z,43.20
2018-07-28T04:52:03.262Z,39.60
2018-07-28T04:54:35.183Z,43.20
2018-07-28T04:57:07.462Z,43.80
2018-07-28T04:59:39.608Z,44.60
2018-07-28T05:02:11.463Z,45.80
2018-07-28T05:04:43.442Z,46.00
2018-07-28T05:07:15.751Z,41.60
2018-07-28T05:09:47.915Z,38.20
2018-07-28T05:12:19.972Z,43.40
2018-07-28T05:14:52.135Z,43.20
2018-07-28T05:17:23.674Z,42.40
2018-07-28T05:19:55.727Z,42.40
2018-07-28T05:22:27.650Z,40.80
2018-07-28T05:24:59.936Z,51.40
2018-07-28T05:27:31.943Z,44.80
2018-07-28T05:30:03.958Z,56.40
2018-07-28T05:32:35.770Z,45.20
2018-07-28T05:35:09.169Z,44.40
2018-07-28T05:37:41.318Z,37.40
2018-07-28T05:40:13.610Z,42.60
2018-07-28T05:42:45.888Z,43.20
2018-07-28T05:45:17.833Z,38.00
2018-07-28T05:47:49.807Z,42.40
2018-07-28T05:50:21.681Z,40.60
2018-07-28T05:52:53.486Z,38.80
2018-07-28T05:55:25.474Z,42.20
2018-07-28T05:57:57.218Z,41.00
2018-07-28T06:00:29.328Z,40.80
2018-07-28T06:03:06.145Z,39.00
2018-07-28T06:05:38.910Z,41.20
2018-07-28T06:08:10.933Z,40.80
2018-07-28T06:10:42.597Z,39.00
2018-07-28T06:13:14.573Z,40.80
2018-07-28T06:15:46.231Z,40.40
2018-07-28T06:18:18.331Z,41.80
2018-07-28T06:20:50.379Z,41.00
2018-07-28T06:23:22.399Z,37.20
2018-07-28T06:25:54.165Z,38.60
2018-07-28T06:28:26.520Z,40.60
2018-07-28T06:30:58.855Z,35.80
2018-07-28T06:33:31.223Z,38.00
2018-07-28T06:36:03.456Z,40.40
2018-07-28T06:38:35.356Z,41.60
2018-07-28T06:41:09.569Z,42.00
2018-07-28T06:43:41.352Z,40.20
2018-07-28T06:46:13.710Z,41.00
2018-07-28T06:48:46.017Z,39.60
2018-07-28T06:51:18.228Z,41.60
2018-07-28T06:53:49.991Z,43.80
2018-07-28T06:56:21.663Z,41.20
2018-07-28T06:58:53.901Z,37.20
2018-07-28T07:01:26.062Z,34.20
2018-07-28T07:03:58.566Z,39.00
2018-07-28T07:06:30.518Z,38.00
2018-07-28T07:09:02.586Z,40.00
2018-07-28T07:11:34.656Z,37.40
2018-07-28T07:14:06.867Z,40.00
2018-07-28T07:16:38.614Z,42.40
2018-07-28T07:19:10.391Z,40.20
2018-07-28T07:21:42.578Z,40.20
2018-07-28T07:24:14.620Z,43.00
2018-07-28T07:26:47.046Z,38.40
2018-07-28T07:29:18.981Z,39.00
2018-07-28T07:31:51.059Z,42.00
2018-07-28T07:34:23.006Z,41.00
2018-07-28T07:36:55.228Z,42.00
2018-07-28T07:39:27.309Z,41.00
2018-07-28T07:43:03.257Z,37.40
2018-07-28T07:45:35.091Z,38.20
2018-07-28T07:48:07.428Z,38.80
2018-07-28T07:50:39.149Z,40.00
2018-07-28T07:53:11.354Z,40.20
2018-07-28T07:55:43.407Z,38.20
2018-07-28T07:58:15.354Z,38.00
2018-07-28T08:00:47.786Z,38.40
2018-07-28T08:03:21.667Z,42.20
2018-07-28T08:05:53.833Z,38.60
2018-07-28T08:08:25.699Z,38.40
2018-07-28T08:10:57.503Z,35.40
2018-07-28T08:13:35.472Z,39.80
2018-07-28T08:16:07.341Z,36.80
2018-07-28T08:18:39.415Z,40.40
2018-07-28T08:21:11.184Z,38.40
2018-07-28T08:23:43.044Z,39.80
2018-07-28T08:26:15.223Z,40.20
2018-07-28T08:28:47.214Z,33.80
2018-07-28T08:31:19.207Z,42.20
2018-07-28T08:33:51.268Z,39.20
2018-07-28T08:36:23.388Z,38.00
2018-07-28T08:38:55.618Z,39.00
2018-07-28T08:41:27.871Z,41.00
2018-07-28T08:44:00.078Z,39.40
2018-07-28T08:46:32.011Z,36.40
2018-07-28T08:49:04.042Z,38.00
2018-07-28T08:51:35.930Z,46.40
2018-07-28T08:54:08.540Z,35.80
2018-07-28T08:56:41.075Z,43.00
2018-07-28T08:59:13.326Z,34.60
2018-07-28T09:01:46.088Z,38.60
2018-07-28T09:04:19.067Z,36.40
2018-07-28T09:06:53.543Z,36.00
2018-07-28T09:09:28.170Z,37.80
2018-07-28T09:12:02.478Z,37.20
2018-07-28T09:14:37.003Z,41.00
2018-07-28T09:17:12.871Z,35.60
2018-07-28T09:19:47.848Z,39.40
2018-07-28T09:22:25.205Z,36.60
2018-07-28T09:24:59.604Z,36.40
2018-07-28T09:27:34.999Z,37.00
2018-07-28T09:30:07.927Z,37.00
2018-07-28T09:32:39.899Z,37.20
2018-07-28T09:35:11.588Z,40.20
2018-07-28T09:37:43.870Z,38.20
2018-07-28T09:40:16.658Z,40.00
2018-07-28T09:42:51.171Z,40.80
2018-07-28T09:45:24.212Z,37.80
2018-07-28T09:47:56.465Z,39.00
2018-07-28T09:50:28.530Z,39.20
2018-07-28T09:53:00.566Z,37.00
2018-07-28T09:55:32.490Z,38.00
2018-07-28T09:58:04.648Z,36.20
2018-07-28T10:00:40.849Z,37.20
2018-07-28T10:03:12.943Z,39.80
2018-07-28T10:05:45.692Z,38.80
2018-07-28T10:08:18.294Z,37.80
2018-07-28T10:10:51.027Z,39.00
2018-07-28T10:13:25.532Z,38.80
2018-07-28T10:16:02.546Z,38.40
2018-07-28T10:18:37.235Z,36.80
2018-07-28T10:21:09.460Z,37.60
2018-07-28T10:23:42.773Z,40.20
2018-07-28T10:26:17.298Z,36.00
2018-07-28T10:28:49.258Z,38.20
2018-07-28T10:31:21.595Z,36.40
2018-07-28T10:33:54.165Z,37.60
2018-07-28T10:36:27.825Z,40.00
2018-07-28T10:39:00.418Z,35.60
2018-07-28T10:41:34.320Z,38.20
2018-07-28T10:44:06.499Z,40.60
2018-07-28T10:46:39.309Z,37.60
2018-07-28T10:49:12.419Z,40.00
2018-07-28T10:51:45.419Z,37.60
2018-07-28T10:54:18.239Z,38.00
2018-07-28T10:56:50.548Z,38.40
2018-07-28T10:59:23.554Z,39.60
2018-07-28T11:01:56.018Z,39.00
2018-07-28T11:04:28.457Z,39.80
2018-07-28T11:07:01.433Z,37.60
2018-07-28T11:09:34.089Z,40.60
2018-07-28T11:12:10.993Z,35.40
2018-07-28T11:14:43.455Z,38.40
2018-07-28T11:17:17.430Z,43.80
2018-07-28T11:19:49.972Z,40.20
2018-07-28T11:22:21.990Z,43.00
2018-07-28T11:24:54.250Z,41.20
2018-07-28T11:27:26.333Z,40.60
2018-07-28T11:29:58.168Z,40.40
2018-07-28T11:32:39.515Z,40.00
2018-07-28T11:35:21.184Z,40.20
2018-07-28T11:38:05.109Z,39.80
2018-07-28T11:40:46.752Z,36.80
2018-07-28T11:43:28.525Z,40.00
2018-07-28T11:46:00.821Z,40.00
2018-07-28T11:48:33.476Z,37.20
2018-07-28T11:51:05.490Z,35.80
2018-07-28T11:53:37.637Z,40.80
2018-07-28T11:56:10.103Z,40.00
2018-07-28T11:58:42.157Z,41.00
2018-07-28T12:01:14.460Z,42.00
2018-07-28T12:03:46.963Z,41.60
2018-07-28T12:06:19.585Z,44.20
2018-07-28T12:08:51.848Z,42.00
2018-07-28T12:11:24.147Z,43.60
2018-07-28T12:13:56.237Z,40.40
2018-07-28T12:16:28.434Z,39.80
2018-07-28T12:19:00.938Z,45.00
2018-07-28T12:21:33.498Z,43.40
2018-07-28T12:24:06.341Z,42.80
2018-07-28T12:26:38.565Z,43.40
2018-07-28T12:29:11.297Z,41.20
2018-07-28T12:31:43.670Z,40.40
2018-07-28T12:34:16.390Z,39.40
2018-07-28T12:36:50.435Z,43.80
2018-07-28T12:39:23.891Z,43.40
2018-07-28T12:41:56.255Z,44.20
2018-07-28T12:44:28.935Z,44.40
2018-07-28T12:47:01.862Z,43.80
2018-07-28T12:49:34.447Z,43.00
2018-07-28T12:52:06.982Z,42.80
2018-07-28T12:54:39.115Z,43.20
2018-07-28T12:57:11.476Z,44.20
2018-07-28T12:59:44.239Z,45.40
2018-07-28T13:02:16.209Z,44.20
2018-07-28T13:04:48.418Z,45.00
2018-07-28T13:07:20.610Z,31.20
2018-07-28T13:09:52.854Z,32.40
2018-07-28T13:12:25.121Z,41.00
2018-07-28T13:14:57.606Z,44.00
2018-07-28T13:17:29.936Z,42.80
2018-07-28T13:20:02.891Z,42.60
2018-07-28T13:22:35.063Z,42.80
2018-07-28T13:25:07.520Z,45.40
2018-07-28T13:27:40.503Z,48.00
2018-07-28T13:30:12.674Z,47.80
2018-07-28T13:32:44.688Z,45.40
2018-07-28T13:35:16.798Z,49.00
2018-07-28T13:37:48.811Z,49.00
2018-07-28T13:40:22.334Z,48.20
2018-07-28T13:42:55.082Z,48.20
2018-07-28T13:45:27.869Z,48.40
2018-07-28T13:47:59.945Z,49.20
2018-07-28T13:50:32.078Z,48.00
2018-07-28T13:53:04.043Z,47.20
2018-07-28T13:55:36.158Z,50.60
2018-07-28T13:58:08.879Z,49.20
2018-07-28T14:00:41.155Z,49.20
2018-07-28T14:03:13.146Z,49.00
2018-07-28T14:05:46.143Z,48.40
2018-07-28T14:08:17.958Z,47.80
2018-07-28T14:10:50.378Z,48.00
2018-07-28T14:13:22.034Z,47.60
2018-07-28T14:15:54.118Z,47.80
2018-07-28T14:18:25.716Z,47.80
2018-07-28T14:20:58.065Z,48.00
2018-07-28T14:23:31.169Z,47.60
2018-07-28T14:26:06.149Z,50.20
2018-07-28T14:28:38.521Z,49.20
2018-07-28T14:31:10.991Z,46.20
2018-07-28T14:33:43.796Z,50.00
2018-07-28T14:36:15.958Z,49.40
2018-07-28T14:38:48.650Z,51.20
2018-07-28T14:41:22.063Z,50.40
2018-07-28T14:43:54.495Z,47.40
2018-07-28T14:46:26.719Z,49.40
2018-07-28T14:48:59.789Z,50.80
2018-07-28T14:51:34.441Z,49.80
2018-07-28T14:54:56.318Z,49.00
2018-07-28T14:57:28.607Z,49.00
2018-07-28T15:00:01.094Z,52.00
2018-07-28T15:02:34.469Z,49.00
2018-07-28T15:05:07.240Z,48.80
2018-07-28T15:07:39.708Z,49.00
2018-07-28T15:10:12.454Z,48.40
2018-07-28T15:12:46.763Z,46.20
2018-07-28T15:15:18.996Z,48.80
2018-07-28T15:17:51.854Z,49.40
2018-07-28T15:20:24.968Z,48.40
2018-07-28T15:22:57.596Z,48.80
2018-07-28T15:25:29.732Z,50.40
2018-07-28T15:28:01.976Z,50.20
2018-07-28T15:30:34.432Z,48.80
2018-07-28T15:33:06.904Z,47.60
2018-07-28T15:35:41.205Z,47.60
2018-07-28T15:38:13.834Z,48.00
2018-07-28T15:40:46.783Z,47.80
2018-07-28T15:43:20.013Z,49.00
2018-07-28T15:45:53.174Z,50.40
2018-07-28T15:48:25.281Z,47.60
2018-07-28T15:50:58.104Z,49.40
2018-07-28T15:53:30.317Z,45.00
2018-07-28T15:56:03.193Z,48.80
2018-07-28T15:58:36.867Z,47.00
2018-07-28T16:01:08.839Z,46.00
2018-07-28T16:03:41.690Z,47.60
2018-07-28T16:06:14.575Z,46.00
2018-07-28T16:08:46.655Z,45.40
2018-07-28T16:11:18.896Z,47.80
2018-07-28T16:13:52.690Z,44.60
2018-07-28T16:16:25.500Z,47.00
2018-07-28T16:18:57.538Z,45.80
2018-07-28T16:21:29.536Z,46.00
2018-07-28T16:24:02.127Z,44.40
2018-07-28T16:26:34.487Z,47.60
2018-07-28T16:29:06.883Z,45.40
2018-07-28T16:31:39.516Z,45.80
2018-07-28T16:34:11.850Z,47.80
2018-07-28T16:36:43.992Z,48.60
2018-07-28T16:39:16.497Z,43.40
2018-07-28T16:41:49.551Z,46.40
2018-07-28T16:44:23.379Z,43.80
2018-07-28T16:46:55.346Z,44.40
2018-07-28T16:49:27.553Z,42.40
2018-07-28T16:51:59.806Z,45.00
2018-07-28T16:54:32.478Z,44.20
2018-07-28T16:57:04.606Z,44.40
2018-07-28T16:59:37.143Z,43.80
2018-07-28T17:02:09.622Z,44.00
2018-07-28T17:04:42.423Z,42.60
2018-07-28T17:07:15.443Z,42.60
2018-07-28T17:09:47.869Z,37.20
2018-07-28T17:12:20.041Z,43.60
2018-07-28T17:14:52.271Z,43.20
2018-07-28T17:17:25.271Z,42.00
2018-07-28T17:19:59.005Z,42.00
2018-07-28T17:22:31.023Z,43.40
2018-07-28T17:25:03.370Z,41.20
2018-07-28T17:27:36.595Z,40.00
2018-07-28T17:30:09.377Z,39.60
2018-07-28T17:32:42.137Z,37.80
2018-07-28T17:35:15.092Z,37.80
2018-07-28T17:37:48.696Z,41.00
2018-07-28T17:40:21.834Z,42.20
2018-07-28T17:42:57.703Z,42.00
2018-07-28T17:45:31.981Z,42.40
2018-07-28T17:48:04.271Z,41.00
2018-07-28T17:50:38.035Z,42.00
2018-07-28T17:53:11.602Z,35.60
2018-07-28T17:55:46.788Z,39.00
2018-07-28T17:58:18.931Z,40.60
2018-07-28T18:00:52.227Z,41.00
2018-07-28T18:03:25.044Z,40.20
2018-07-28T18:05:57.708Z,39.00
2018-07-28T18:08:30.030Z,38.80
2018-07-28T18:11:02.414Z,39.20
2018-07-28T18:13:35.098Z,41.00
2018-07-28T18:16:08.337Z,39.40
2018-07-28T18:18:40.841Z,36.40
2018-07-28T18:21:13.508Z,36.60
2018-07-28T18:23:47.098Z,36.60
2018-07-28T18:26:19.647Z,36.80
2018-07-28T18:28:52.589Z,38.80
2018-07-28T18:31:25.237Z,36.80
2018-07-28T18:33:57.623Z,37.20
2018-07-28T18:36:31.388Z,36.00
2018-07-28T18:39:07.006Z,37.00
2018-07-28T18:41:39.744Z,36.60
2018-07-28T18:44:12.820Z,41.60
2018-07-28T18:46:45.813Z,37.00
2018-07-28T18:49:18.813Z,39.00
2018-07-28T18:51:51.659Z,37.20
2018-07-28T18:54:24.744Z,34.60
2018-07-28T18:56:57.490Z,35.20
2018-07-28T18:59:30.211Z,37.60
2018-07-28T19:02:03.296Z,37.00
2018-07-28T19:04:36.285Z,40.20
2018-07-28T19:07:09.873Z,36.00
2018-07-28T19:09:52.436Z,39.20
2018-07-28T19:12:29.978Z,38.00
2018-07-28T19:15:03.404Z,41.00
2018-07-28T19:17:41.028Z,40.00
2018-07-28T19:20:14.200Z,39.60
2018-07-28T19:24:57.698Z,38.60
2018-07-28T19:27:31.330Z,36.40
2018-07-28T19:30:04.453Z,36.60
2018-07-28T19:32:37.384Z,36.20
2018-07-28T19:35:09.934Z,37.80
2018-07-28T19:37:42.829Z,38.00
2018-07-28T19:40:15.724Z,37.40
2018-07-28T19:42:55.078Z,41.40
2018-07-28T19:45:28.248Z,39.60
2018-07-28T19:48:01.359Z,39.40
2018-07-28T19:50:34.397Z,35.40
2018-07-28T19:53:06.814Z,38.00
2018-07-28T19:55:40.838Z,35.40
2018-07-28T19:58:13.863Z,37.00
2018-07-28T20:00:46.723Z,36.20
2018-07-28T20:03:19.977Z,37.40
2018-07-28T20:05:53.424Z,36.80
2018-07-28T20:08:26.405Z,34.40
2018-07-28T20:10:59.343Z,37.40
2018-07-28T20:13:31.813Z,36.80
2018-07-28T20:16:04.636Z,41.40
2018-07-28T20:18:38.152Z,37.20
2018-07-28T20:21:11.430Z,36.00
2018-07-28T20:23:44.452Z,36.60
2018-07-28T20:26:17.492Z,38.80
2018-07-28T20:28:50.426Z,36.60
2018-07-28T20:31:23.823Z,36.40
2018-07-28T20:33:56.840Z,37.80
2018-07-28T20:36:30.152Z,35.80
2018-07-28T20:39:02.678Z,33.20
2018-07-28T20:41:35.488Z,31.20
2018-07-28T20:44:08.091Z,33.60
2018-07-28T20:46:40.559Z,35.00
2018-07-28T20:49:13.752Z,34.00
2018-07-28T20:51:46.920Z,34.00
2018-07-28T20:54:20.169Z,37.00
2018-07-28T20:56:53.188Z,36.40
2018-07-28T20:59:25.987Z,36.00
2018-07-28T21:01:58.880Z,36.40
2018-07-28T21:04:32.431Z,39.40
2018-07-28T21:07:05.432Z,37.80
2018-07-28T21:09:38.401Z,34.20
2018-07-28T21:12:11.865Z,37.00
2018-07-28T21:14:45.188Z,36.60
2018-07-28T21:17:17.190Z,36.80
2018-07-28T21:19:50.430Z,41.20
2018-07-28T21:22:23.315Z,34.60
2018-07-28T21:24:55.772Z,36.80
2018-07-28T21:27:28.810Z,37.80
2018-07-28T21:30:02.345Z,35.60
2018-07-28T21:32:35.168Z,39.40
2018-07-28T21:35:09.839Z,39.00
2018-07-28T21:37:41.905Z,36.40
2018-07-28T21:40:14.572Z,37.00
2018-07-28T21:42:48.095Z,34.00
2018-07-28T21:45:20.866Z,38.00
2018-07-28T21:47:54.153Z,39.40
2018-07-28T21:50:27.021Z,39.80
2018-07-28T21:52:59.205Z,38.60
2018-07-28T21:55:31.848Z,39.00
2018-07-28T21:58:04.013Z,37.40
2018-07-28T22:00:41.331Z,39.40
2018-07-28T22:03:14.086Z,38.40
2018-07-28T22:05:47.039Z,37.40
2018-07-28T22:08:19.903Z,39.00
2018-07-28T22:10:52.427Z,40.40
2018-07-28T22:13:24.968Z,42.40
2018-07-28T22:15:57.262Z,41.20
2018-07-28T22:18:29.408Z,40.20
2018-07-28T22:21:01.606Z,40.20
2018-07-28T22:23:34.382Z,38.40
2018-07-28T22:26:07.896Z,41.00
2018-07-28T22:28:40.996Z,40.60
2018-07-28T22:31:13.715Z,39.60
2018-07-28T22:33:45.946Z,42.40
2018-07-28T22:36:18.498Z,39.40
2018-07-28T22:38:50.718Z,39.60
2018-07-28T22:41:23.749Z,40.20
2018-07-28T22:43:56.095Z,38.00
2018-07-28T22:46:28.485Z,41.00
2018-07-28T22:49:01.076Z,36.20
2018-07-28T22:51:33.279Z,42.20
2018-07-28T22:54:05.719Z,38.80
2018-07-28T22:56:38.348Z,37.40
2018-07-28T22:59:11.148Z,38.40
2018-07-28T23:01:43.258Z,41.80
2018-07-28T23:04:16.196Z,38.40
2018-07-28T23:06:48.697Z,40.20
2018-07-28T23:09:21.514Z,37.00
2018-07-28T23:11:54.212Z,40.00
2018-07-28T23:14:26.941Z,35.20
2018-07-28T23:16:59.560Z,37.20
2018-07-28T23:19:32.325Z,40.80
2018-07-28T23:22:04.640Z,38.00
2018-07-28T23:24:36.682Z,40.40
2018-07-28T23:27:08.338Z,37.20
2018-07-28T23:29:40.060Z,39.40
2018-07-28T23:32:13.287Z,40.80
2018-07-28T23:34:45.147Z,35.60
2018-07-28T23:37:16.952Z,38.60
2018-07-28T23:39:48.881Z,38.20
2018-07-28T23:42:20.496Z,38.20
2018-07-28T23:44:52.179Z,40.80
2018-07-28T23:47:24.281Z,37.00
2018-07-28T23:49:55.691Z,37.00
2018-07-28T23:52:27.571Z,37.60
2018-07-28T23:54:58.973Z,36.80
2018-07-28T23:57:30.887Z,37.60
